createdAt,value
2018-02-23T00:01:49.381Z,19.20
2018-02-23T00:04:17.144Z,19.10
2018-02-23T00:06:44.894Z,18.80
2018-02-23T00:09:12.670Z,18.50
2018-02-23T00:11:40.398Z,18.50
2018-02-23T00:14:08.158Z,18.20
2018-02-23T00:16:35.901Z,18.20
2018-02-23T00:19:03.674Z,17.90
2018-02-23T00:21:32.417Z,17.80
2018-02-23T00:24:00.150Z,17.80
2018-02-23T00:26:27.923Z,17.80
2018-02-23T00:28:55.642Z,17.70
2018-02-23T00:31:24.109Z,17.70
2018-02-23T00:34:02.592Z,17.70
2018-02-23T00:36:33.997Z,17.50
2018-02-23T00:39:01.907Z,17.40
2018-02-23T00:41:29.717Z,17.40
2018-02-23T00:43:57.471Z,17.40
2018-02-23T00:46:25.277Z,17.30
2018-02-23T00:48:53.026Z,17.00
2018-02-23T00:51:20.821Z,16.90
2018-02-23T00:53:48.628Z,16.80
2018-02-23T00:56:16.375Z,16.90
2018-02-23T00:58:44.149Z,16.80
2018-02-23T01:01:11.940Z,16.70
2018-02-23T01:03:39.719Z,16.80
2018-02-23T01:06:07.421Z,16.80
2018-02-23T01:08:35.175Z,16.80
2018-02-23T01:11:02.968Z,16.80
2018-02-23T01:13:30.668Z,16.80
2018-02-23T01:15:58.386Z,16.70
2018-02-23T01:18:26.139Z,16.70
2018-02-23T01:20:53.909Z,16.70
2018-02-23T01:23:22.488Z,16.40
2018-02-23T01:25:51.001Z,16.30
2018-02-23T01:28:18.736Z,16.30
2018-02-23T01:30:46.527Z,16.20
2018-02-23T01:33:14.293Z,16.30
2018-02-23T01:35:42.038Z,16.30
2018-02-23T01:38:09.861Z,16.20
2018-02-23T01:40:37.638Z,16.10
2018-02-23T01:43:05.393Z,16.20
2018-02-23T01:45:33.106Z,16.10
2018-02-23T01:48:00.806Z,16.10
2018-02-23T01:50:28.590Z,15.80
2018-02-23T01:52:56.338Z,15.80
2018-02-23T01:55:24.079Z,15.80
2018-02-23T01:57:51.834Z,15.80
2018-02-23T02:00:20.433Z,15.80
2018-02-23T02:02:48.232Z,15.70
2018-02-23T02:05:16.023Z,15.50
2018-02-23T02:07:43.748Z,15.40
2018-02-23T02:10:11.541Z,15.30
2018-02-23T02:12:39.361Z,15.00
2018-02-23T02:15:07.861Z,15.10
2018-02-23T02:17:35.631Z,15.00
2018-02-23T02:20:03.441Z,15.20
2018-02-23T02:22:31.285Z,15.20
2018-02-23T02:24:59.032Z,15.10
2018-02-23T02:27:26.757Z,15.10
2018-02-23T02:29:54.475Z,15.20
2018-02-23T02:32:22.241Z,15.30
2018-02-23T02:34:49.945Z,15.10
2018-02-23T02:37:17.677Z,15.20
2018-02-23T02:39:45.461Z,15.00
2018-02-23T02:42:13.296Z,15.00
2018-02-23T02:44:41.108Z,15.10
2018-02-23T02:47:08.822Z,15.20
2018-02-23T02:49:36.874Z,15.20
2018-02-23T02:52:04.644Z,14.70
2018-02-23T02:54:32.980Z,14.70
2018-02-23T02:57:00.719Z,14.70
2018-02-23T02:59:28.562Z,14.80
2018-02-23T03:01:56.345Z,14.50
2018-02-23T03:04:24.119Z,14.60
2018-02-23T03:06:51.815Z,14.70
2018-02-23T03:09:19.570Z,14.70
2018-02-23T03:11:47.287Z,14.80
2018-02-23T03:14:36.369Z,14.90
2018-02-23T03:17:04.074Z,14.90
2018-02-23T03:19:31.791Z,15.00
2018-02-23T03:22:00.393Z,14.90
2018-02-23T03:24:28.164Z,14.80
2018-02-23T03:26:55.954Z,14.90
2018-02-23T03:29:23.641Z,14.80
2018-02-23T03:31:51.358Z,14.80
2018-02-23T03:34:19.073Z,14.80
2018-02-23T03:36:46.773Z,14.80
2018-02-23T03:39:15.341Z,14.80
2018-02-23T03:41:43.117Z,14.80
2018-02-23T03:44:10.883Z,14.90
2018-02-23T03:46:38.678Z,14.90
2018-02-23T03:49:06.444Z,14.80
2018-02-23T03:51:34.156Z,14.80
2018-02-23T03:54:01.860Z,14.70
2018-02-23T03:56:29.679Z,14.70
2018-02-23T03:58:57.461Z,14.70
2018-02-23T04:01:25.261Z,14.60
2018-02-23T04:03:52.995Z,14.50
2018-02-23T04:06:20.695Z,14.40
2018-02-23T04:08:48.423Z,14.30
2018-02-23T04:11:16.125Z,14.30
2018-02-23T04:13:43.933Z,14.30
2018-02-23T04:16:11.724Z,14.10
2018-02-23T04:18:39.498Z,14.20
2018-02-23T04:21:08.151Z,14.30
2018-02-23T04:23:36.662Z,14.30
2018-02-23T04:26:04.435Z,14.30
2018-02-23T04:28:32.142Z,14.40
2018-02-23T04:30:59.904Z,14.20
2018-02-23T04:33:27.678Z,14.00
2018-02-23T04:35:55.395Z,13.90
2018-02-23T04:38:23.219Z,13.90
2018-02-23T04:40:51.002Z,13.50
2018-02-23T04:43:18.737Z,13.50
2018-02-23T04:45:46.527Z,13.60
2018-02-23T04:48:14.325Z,13.60
2018-02-23T04:50:42.084Z,13.50
2018-02-23T04:53:09.884Z,13.60
2018-02-23T04:55:37.611Z,13.60
2018-02-23T04:58:05.407Z,13.30
2018-02-23T05:00:33.244Z,13.50
2018-02-23T05:03:01.044Z,13.60
2018-02-23T05:05:28.812Z,13.70
2018-02-23T05:07:57.327Z,13.90
2018-02-23T05:10:25.139Z,13.80
2018-02-23T05:12:52.881Z,13.90
2018-02-23T05:15:20.681Z,13.80
2018-02-23T05:17:48.388Z,13.70
2018-02-23T05:20:16.083Z,13.80
2018-02-23T05:22:43.777Z,13.90
2018-02-23T05:25:11.531Z,14.00
2018-02-23T05:27:39.266Z,13.80
2018-02-23T05:30:07.013Z,14.00
2018-02-23T05:32:34.732Z,14.10
2018-02-23T05:35:02.438Z,14.10
2018-02-23T05:37:30.164Z,14.30
2018-02-23T05:39:57.925Z,14.30
2018-02-23T05:42:25.627Z,14.40
2018-02-23T05:44:54.139Z,14.40
2018-02-23T05:47:21.847Z,14.30
2018-02-23T05:49:49.637Z,14.40
2018-02-23T05:52:17.327Z,14.50
2018-02-23T05:54:45.038Z,14.60
2018-02-23T05:57:12.794Z,14.70
2018-02-23T05:59:40.542Z,14.90
2018-02-23T06:02:09.192Z,15.10
2018-02-23T06:04:36.928Z,15.10
2018-02-23T06:07:04.730Z,15.30
2018-02-23T06:09:33.223Z,15.40
2018-02-23T06:12:01.771Z,15.30
2018-02-23T06:14:29.526Z,15.30
2018-02-23T06:16:57.310Z,15.40
2018-02-23T06:19:30.771Z,15.40
2018-02-23T06:21:58.999Z,15.50
2018-02-23T06:24:26.769Z,15.50
2018-02-23T06:26:54.575Z,15.40
2018-02-23T06:29:22.290Z,15.40
2018-02-23T06:31:50.059Z,15.10
2018-02-23T06:34:17.805Z,15.00
2018-02-23T06:36:45.540Z,15.10
2018-02-23T06:39:13.278Z,15.30
2018-02-23T06:41:41.050Z,15.30
2018-02-23T06:44:08.845Z,15.50
2018-02-23T06:46:36.563Z,15.50
2018-02-23T06:49:04.313Z,15.50
2018-02-23T06:51:32.072Z,15.60
2018-02-23T06:53:59.810Z,15.60
2018-02-23T06:56:27.560Z,15.70
2018-02-23T06:58:55.305Z,15.90
2018-02-23T07:01:23.814Z,16.00
2018-02-23T07:03:51.572Z,16.00
2018-02-23T07:06:19.286Z,16.00
2018-02-23T07:08:47.015Z,15.90
2018-02-23T07:11:15.239Z,16.00
2018-02-23T07:13:43.590Z,15.90
2018-02-23T07:16:12.872Z,16.10
2018-02-23T07:18:41.314Z,16.10
2018-02-23T07:21:09.666Z,16.20
2018-02-23T07:23:38.308Z,15.90
2018-02-23T07:26:06.062Z,15.90
2018-02-23T07:28:33.787Z,15.60
2018-02-23T07:31:01.475Z,15.70
2018-02-23T07:33:29.168Z,15.70
2018-02-23T07:35:57.665Z,15.80
2018-02-23T07:38:25.339Z,15.70
2018-02-23T07:40:53.042Z,15.80
2018-02-23T07:43:20.766Z,16.00
2018-02-23T07:45:48.488Z,16.10
2018-02-23T07:48:16.200Z,16.30
2018-02-23T07:50:43.910Z,16.40
2018-02-23T07:53:11.620Z,16.10
2018-02-23T07:55:39.320Z,16.20
2018-02-23T07:58:07.070Z,16.30
2018-02-23T08:00:34.861Z,16.50
2018-02-23T08:03:02.568Z,16.20
2018-02-23T08:05:30.291Z,16.20
2018-02-23T08:07:58.027Z,16.30
2018-02-23T08:10:25.718Z,16.20
2018-02-23T08:12:53.383Z,16.00
2018-02-23T08:15:21.137Z,16.00
2018-02-23T08:17:48.821Z,16.30
2018-02-23T08:20:16.579Z,16.40
2018-02-23T08:22:44.279Z,16.50
2018-02-23T08:25:12.036Z,16.60
2018-02-23T08:27:39.838Z,16.70
2018-02-23T08:30:07.668Z,16.70
2018-02-23T08:32:35.456Z,16.90
2018-02-23T08:35:03.327Z,17.00
2018-02-23T08:37:31.051Z,17.20
2018-02-23T08:39:58.831Z,17.30
2018-02-23T08:42:26.619Z,17.50
2018-02-23T08:44:55.134Z,17.10
2018-02-23T08:47:22.904Z,17.10
2018-02-23T08:49:50.628Z,17.00
2018-02-23T08:52:18.429Z,16.90
2018-02-23T08:54:46.174Z,16.90
2018-02-23T08:57:13.933Z,17.00
2018-02-23T08:59:42.475Z,16.90
2018-02-23T09:02:10.315Z,16.80
2018-02-23T09:04:38.100Z,17.00
2018-02-23T09:07:05.834Z,17.00
2018-02-23T09:09:33.620Z,16.90
2018-02-23T09:12:01.380Z,16.80
2018-02-23T09:14:30.152Z,16.90
2018-02-23T09:16:57.894Z,16.80
2018-02-23T09:19:25.645Z,16.80
2018-02-23T09:21:53.446Z,16.70
2018-02-23T09:24:21.247Z,16.40
2018-02-23T09:26:49.048Z,16.10
2018-02-23T09:29:16.777Z,15.80
2018-02-23T09:31:44.565Z,15.90
2018-02-23T09:34:24.198Z,16.00
2018-02-23T09:36:51.954Z,16.10
2018-02-23T09:39:19.782Z,16.20
2018-02-23T09:41:47.586Z,16.00
2018-02-23T09:44:15.567Z,16.00
2018-02-23T09:46:43.303Z,15.90
2018-02-23T09:49:11.312Z,16.00
2018-02-23T09:51:39.104Z,16.00
2018-02-23T09:54:06.935Z,16.00
2018-02-23T09:56:35.018Z,16.00
2018-02-23T09:59:02.837Z,15.70
2018-02-23T10:01:30.553Z,15.80
2018-02-23T10:03:58.354Z,16.00
2018-02-23T10:06:26.171Z,15.90
2018-02-23T10:08:53.913Z,15.90
2018-02-23T10:11:21.711Z,15.80
2018-02-23T10:13:49.518Z,15.90
2018-02-23T10:16:17.247Z,15.80
2018-02-23T10:18:45.049Z,15.60
2018-02-23T10:21:12.788Z,15.40
2018-02-23T10:23:40.646Z,15.20
2018-02-23T10:26:08.408Z,15.40
2018-02-23T10:28:36.183Z,15.50
2018-02-23T10:31:03.939Z,15.60
2018-02-23T10:33:31.773Z,15.30
2018-02-23T10:36:00.425Z,15.30
2018-02-23T10:38:28.238Z,15.20
2018-02-23T10:40:56.831Z,14.90
2018-02-23T10:43:24.660Z,14.80
2018-02-23T10:45:52.452Z,15.00
2018-02-23T10:48:21.081Z,15.20
2018-02-23T10:50:48.856Z,15.10
2018-02-23T10:53:16.649Z,15.30
2018-02-23T10:55:44.392Z,15.20
2018-02-23T10:58:12.183Z,15.50
2018-02-23T11:00:39.937Z,15.70
2018-02-23T11:03:07.717Z,15.80
2018-02-23T11:05:35.442Z,15.80
2018-02-23T11:08:03.248Z,15.40
2018-02-23T11:10:31.048Z,15.30
2018-02-23T11:12:59.655Z,15.90
2018-02-23T11:15:27.472Z,15.90
2018-02-23T11:17:55.259Z,16.10
2018-02-23T11:20:23.834Z,15.90
2018-02-23T11:22:51.620Z,15.90
2018-02-23T11:25:19.417Z,15.80
2018-02-23T11:27:47.151Z,15.70
2018-02-23T11:30:14.888Z,15.80
2018-02-23T11:32:42.617Z,15.80
2018-02-23T11:35:10.377Z,15.90
2018-02-23T11:37:38.128Z,15.90
2018-02-23T11:40:05.909Z,16.00
2018-02-23T11:42:33.651Z,16.10
2018-02-23T11:45:01.479Z,16.30
2018-02-23T11:47:29.232Z,16.10
2018-02-23T11:49:57.058Z,16.40
2018-02-23T11:52:24.786Z,16.50
2018-02-23T11:54:52.517Z,16.50
2018-02-23T11:57:25.897Z,16.20
2018-02-23T11:59:53.649Z,16.40
2018-02-23T12:02:21.458Z,16.60
2018-02-23T12:04:49.573Z,16.50
2018-02-23T12:07:17.400Z,16.50
2018-02-23T12:09:45.187Z,16.60
2018-02-23T12:12:13.043Z,16.40
2018-02-23T12:14:40.791Z,16.20
2018-02-23T12:17:08.596Z,16.00
2018-02-23T12:19:36.418Z,16.10
2018-02-23T12:22:04.177Z,16.00
2018-02-23T12:24:31.967Z,16.10
2018-02-23T12:26:59.766Z,16.40
2018-02-23T12:29:27.569Z,16.60
2018-02-23T12:31:56.089Z,16.40
2018-02-23T12:34:23.911Z,16.40
2018-02-23T12:36:51.886Z,16.30
2018-02-23T12:39:19.638Z,16.30
2018-02-23T12:41:47.434Z,16.20
2018-02-23T12:44:15.259Z,16.50
2018-02-23T12:46:43.034Z,16.40
2018-02-23T12:49:10.767Z,16.20
2018-02-23T12:51:38.848Z,15.80
2018-02-23T12:54:06.736Z,15.30
2018-02-23T12:56:35.327Z,15.30
2018-02-23T12:59:03.126Z,15.20
2018-02-23T13:01:30.867Z,15.80
2018-02-23T13:03:58.677Z,16.10
2018-02-23T13:06:26.418Z,16.10
2018-02-23T13:08:54.212Z,16.60
2018-02-23T13:11:22.012Z,16.40
2018-02-23T13:13:55.527Z,16.40
2018-02-23T13:16:30.145Z,15.90
2018-02-23T13:18:57.917Z,16.00
2018-02-23T13:21:25.707Z,16.40
2018-02-23T13:23:54.248Z,16.40
2018-02-23T13:26:22.027Z,16.30
2018-02-23T13:28:49.889Z,16.10
2018-02-23T13:31:17.723Z,16.20
2018-02-23T13:33:45.519Z,16.50
2018-02-23T13:36:13.291Z,16.40
2018-02-23T13:38:41.016Z,16.50
2018-02-23T13:41:14.477Z,16.80
2018-02-23T13:43:42.276Z,16.90
2018-02-23T13:46:10.126Z,17.00
2018-02-23T13:48:37.860Z,16.80
2018-02-23T13:51:05.631Z,16.80
2018-02-23T13:53:39.036Z,16.70
2018-02-23T13:56:06.801Z,16.50
2018-02-23T13:58:35.160Z,16.70
2018-02-23T14:01:03.853Z,16.70
2018-02-23T14:03:33.156Z,16.60
2018-02-23T14:06:03.898Z,16.50
2018-02-23T14:08:31.704Z,16.90
2018-02-23T14:10:59.528Z,17.10
2018-02-23T14:13:27.325Z,17.20
2018-02-23T14:15:55.157Z,17.30
2018-02-23T14:18:22.916Z,17.50
2018-02-23T14:20:50.654Z,17.70
2018-02-23T14:23:18.458Z,17.90
2018-02-23T14:25:46.379Z,18.00
2018-02-23T14:28:14.932Z,18.10
2018-02-23T14:30:42.757Z,18.00
2018-02-23T14:33:10.528Z,17.90
2018-02-23T14:35:38.239Z,17.90
2018-02-23T14:38:07.209Z,17.80
2018-02-23T14:40:34.991Z,17.70
2018-02-23T14:43:02.859Z,17.80
2018-02-23T14:45:30.636Z,17.80
2018-02-23T14:47:58.374Z,17.90
2018-02-23T14:50:38.015Z,18.00
2018-02-23T14:53:05.757Z,17.80
2018-02-23T14:55:33.476Z,17.90
2018-02-23T14:58:01.217Z,17.80
2018-02-23T15:00:28.999Z,17.90
2018-02-23T15:02:56.800Z,17.80
2018-02-23T15:05:24.604Z,18.00
2018-02-23T15:07:52.345Z,18.00
2018-02-23T15:10:20.092Z,17.80
2018-02-23T15:12:47.897Z,17.80
2018-02-23T15:15:15.632Z,17.80
2018-02-23T15:17:43.416Z,17.90
2018-02-23T15:20:11.160Z,18.00
2018-02-23T15:22:38.921Z,17.70
2018-02-23T15:25:06.669Z,17.60
2018-02-23T15:27:34.450Z,17.50
2018-02-23T15:30:02.188Z,17.40
2018-02-23T15:32:44.821Z,17.10
2018-02-23T15:35:14.444Z,17.30
2018-02-23T15:37:42.252Z,17.50
2018-02-23T15:40:11.122Z,17.60
2018-02-23T15:42:38.946Z,17.70
2018-02-23T15:45:06.731Z,17.20
2018-02-23T16:01:03.960Z,17.90
2018-02-23T16:03:31.813Z,17.70
2018-02-23T16:05:59.737Z,17.60
2018-02-23T16:08:27.531Z,17.80
2018-02-23T16:10:55.319Z,17.70
2018-02-23T16:13:23.107Z,17.50
2018-02-23T16:15:51.318Z,17.40
2018-02-23T16:18:20.142Z,17.40
2018-02-23T16:20:47.988Z,17.10
2018-02-23T16:23:16.389Z,16.80
2018-02-23T16:25:44.194Z,16.80
2018-02-23T16:28:12.195Z,16.40
2018-02-23T16:30:40.090Z,16.50
2018-02-23T16:33:09.295Z,16.90
2018-02-23T16:35:41.541Z,16.90
2018-02-23T16:38:09.351Z,16.90
2018-02-23T16:40:37.785Z,16.60
2018-02-23T16:43:10.358Z,16.80
2018-02-23T16:45:38.187Z,16.60
2018-02-23T16:48:06.047Z,16.70
2018-02-23T16:50:33.988Z,16.30
2018-02-23T16:53:02.775Z,16.20
2018-02-23T16:55:30.517Z,16.40
2018-02-23T16:57:58.447Z,16.60
2018-02-23T17:00:26.205Z,16.90
2018-02-23T17:02:53.942Z,16.60
2018-02-23T17:05:23.436Z,16.80
2018-02-23T17:07:51.297Z,16.80
2018-02-23T17:10:19.112Z,17.00
2018-02-23T17:12:47.731Z,17.40
2018-02-23T17:15:16.489Z,17.40
2018-02-23T17:17:44.332Z,17.20
2018-02-23T17:20:12.044Z,17.10
2018-02-23T17:22:39.791Z,16.30
2018-02-23T17:25:07.603Z,16.10
2018-02-23T17:27:35.377Z,16.30
2018-02-23T17:30:04.110Z,16.40
2018-02-23T17:32:31.956Z,15.90
2018-02-23T17:35:00.384Z,16.20
2018-02-23T17:37:29.137Z,16.40
2018-02-23T17:39:57.052Z,16.40
2018-02-23T17:42:24.882Z,15.80
2018-02-23T17:44:53.469Z,15.30
2018-02-23T17:47:21.309Z,15.20
2018-02-23T17:49:49.906Z,15.80
2018-02-23T17:52:17.694Z,15.30
2018-02-23T17:54:48.356Z,15.60
2018-02-23T17:57:19.950Z,16.00
2018-02-23T17:59:47.778Z,15.40
2018-02-23T18:02:16.348Z,16.10
2018-02-23T18:04:44.094Z,16.00
2018-02-23T18:07:11.926Z,16.10
2018-02-23T18:12:22.856Z,15.10
2018-02-23T18:14:50.585Z,15.50
2018-02-23T18:17:18.690Z,16.00
2018-02-23T18:19:46.438Z,16.00
2018-02-23T18:22:14.391Z,16.00
2018-02-23T18:24:42.270Z,16.00
2018-02-23T18:27:10.097Z,15.90
2018-02-23T18:29:37.913Z,16.40
2018-02-23T18:32:05.689Z,16.70
2018-02-23T18:34:33.399Z,16.80
2018-02-23T18:37:01.214Z,16.60
2018-02-23T18:39:30.625Z,16.60
2018-02-23T18:41:58.414Z,16.30
2018-02-23T18:44:26.916Z,16.40
2018-02-23T18:46:54.676Z,16.20
2018-02-23T18:49:22.520Z,16.10
2018-02-23T18:51:51.100Z,16.40
2018-02-23T18:54:18.864Z,16.40
2018-02-23T18:56:46.630Z,16.50
2018-02-23T18:59:14.574Z,16.70
2018-02-23T19:01:43.367Z,16.60
2018-02-23T19:04:12.937Z,16.50
2018-02-23T19:06:40.782Z,16.40
2018-02-23T19:09:08.971Z,16.50
2018-02-23T19:11:37.593Z,16.50
2018-02-23T19:14:05.447Z,16.50
2018-02-23T19:16:33.274Z,16.40
2018-02-23T19:19:01.047Z,15.90
2018-02-23T19:21:28.844Z,16.10
2018-02-23T19:23:56.575Z,16.40
2018-02-23T19:26:24.365Z,16.20
2018-02-23T19:28:53.699Z,15.80
2018-02-23T19:31:21.518Z,15.80
2018-02-23T19:33:49.344Z,15.70
2018-02-23T19:36:17.071Z,15.60
2018-02-23T19:38:44.911Z,14.80
2018-02-23T19:41:12.840Z,15.10
2018-02-23T19:43:40.563Z,15.00
2018-02-23T19:46:08.298Z,14.70
2018-02-23T19:48:36.070Z,14.80
2018-02-23T19:51:04.613Z,15.60
2018-02-23T19:53:32.427Z,15.10
2018-02-23T19:56:00.293Z,15.00
2018-02-23T19:58:30.154Z,14.60
2018-02-23T20:00:58.003Z,14.90
2018-02-23T20:03:25.845Z,14.50
2018-02-23T20:05:53.582Z,14.40
2018-02-23T20:08:21.606Z,15.00
2018-02-23T20:10:51.928Z,14.90
2018-02-23T20:13:20.461Z,14.90
2018-02-23T20:15:48.592Z,14.80
2018-02-23T20:18:16.751Z,15.20
2018-02-23T20:20:46.941Z,15.00
2018-02-23T20:23:16.704Z,15.30
2018-02-23T20:25:44.520Z,15.50
2018-02-23T20:28:12.362Z,15.80
2018-02-23T20:30:40.305Z,15.90
2018-02-23T20:33:08.523Z,15.60
2018-02-23T20:35:36.284Z,15.30
2018-02-23T20:38:04.096Z,15.50
2018-02-23T20:40:31.889Z,15.70
2018-02-23T20:43:00.028Z,15.30
2018-02-23T20:45:28.084Z,15.10
2018-02-23T20:47:55.904Z,14.50
2018-02-23T20:50:23.663Z,14.60
2018-02-23T20:52:51.535Z,15.00
2018-02-23T20:55:22.470Z,15.30
2018-02-23T20:57:50.269Z,15.70
2018-02-23T21:00:21.887Z,16.00
2018-02-23T21:02:49.928Z,15.90
2018-02-23T21:05:17.700Z,15.30
2018-02-23T21:07:45.991Z,15.80
2018-02-23T21:10:13.792Z,15.80
2018-02-23T21:12:41.745Z,15.80
2018-02-23T21:15:09.603Z,15.60
2018-02-23T21:17:37.688Z,15.40
2018-02-23T21:20:05.629Z,14.80
2018-02-23T21:22:33.568Z,14.70
2018-02-23T21:25:02.251Z,15.40
2018-02-23T21:27:30.365Z,15.30
2018-02-23T21:29:58.261Z,15.30
2018-02-23T21:32:26.093Z,15.40
2018-02-23T21:34:53.943Z,15.60
2018-02-23T21:37:22.240Z,15.80
2018-02-23T21:39:50.268Z,15.50
2018-02-23T21:42:18.140Z,15.30
2018-02-23T21:44:47.810Z,15.50
2018-02-23T21:47:15.680Z,15.10
2018-02-23T21:49:43.562Z,14.90
2018-02-23T21:52:11.393Z,14.60
2018-02-23T21:54:40.622Z,14.10
2018-02-23T21:57:09.396Z,13.90
2018-02-23T21:59:46.904Z,13.90
2018-02-23T22:02:16.774Z,14.20
2018-02-23T22:04:47.976Z,14.80
2018-02-23T22:07:15.763Z,14.70
2018-02-23T22:09:43.522Z,14.70
2018-02-23T22:12:11.374Z,14.80
2018-02-23T22:14:39.296Z,14.60
2018-02-23T22:17:07.076Z,14.70
2018-02-23T22:19:34.995Z,14.90
2018-02-23T22:22:02.828Z,15.30
2018-02-23T22:24:30.635Z,14.90
2018-02-23T22:26:58.537Z,14.60
2018-02-23T22:29:26.434Z,14.10
2018-02-23T22:31:54.234Z,14.10
2018-02-23T22:34:22.876Z,14.10
2018-02-23T22:36:50.656Z,13.70
2018-02-23T22:39:18.444Z,13.90
2018-02-23T22:41:46.291Z,14.20
2018-02-23T22:44:14.048Z,14.20
2018-02-23T22:46:41.915Z,14.20
2018-02-23T22:49:09.672Z,14.60
2018-02-23T22:51:37.464Z,14.10
2018-02-23T22:54:05.244Z,14.30
2018-02-23T22:56:33.052Z,14.30
2018-02-23T22:59:00.813Z,14.20
2018-02-23T23:01:28.586Z,13.80
2018-02-23T23:03:56.813Z,13.80
2018-02-23T23:06:24.605Z,13.90
2018-02-23T23:08:52.485Z,13.90
2018-02-23T23:11:22.019Z,13.50
2018-02-23T23:13:49.810Z,14.00
2018-02-23T23:16:17.562Z,13.80
2018-02-23T23:18:45.410Z,14.20
2018-02-23T23:21:13.176Z,14.30
2018-02-23T23:23:40.968Z,14.30
2018-02-23T23:26:08.788Z,14.30
2018-02-23T23:28:36.610Z,13.80
2018-02-23T23:31:04.404Z,14.00
2018-02-23T23:33:32.300Z,13.60
2018-02-23T23:36:00.133Z,13.70
2018-02-23T23:38:27.986Z,13.90
2018-02-23T23:40:55.777Z,13.80
2018-02-23T23:43:23.619Z,14.10
2018-02-23T23:45:51.408Z,14.20
2018-02-23T23:48:19.154Z,14.50
2018-02-23T23:50:46.994Z,14.60
2018-02-23T23:53:14.806Z,14.50
2018-02-23T23:55:42.570Z,14.00
2018-02-23T23:58:10.397Z,14.00
